Stottfjord — LMCE — position and weather

sailwx.info

Track history (hours):
 
Tides and Currents Weather Stations Pressure Air Temp Water Temp Dewpoint Dewpoint Depression Visibility Wind Speed Wind Dir Waves Ship Positions

Stottfjord

Last reported at 2016-Sep-21 23:19 UTC. Time now 2016-Sep-29 03:25 UTC.
Position N 62°46' E 006°34'.

Length 28 m; draft 5.3 m.

Type: Fishing. MMSI: 257580600.

Date/timePositionNaut miles runAvg speedWind from/ knotsBaromVisibWave heightAir tempDewpointWater temp
2016-Sep-21 23:19N 62°46' E 006°34'8 8.6
2016-Sep-21 22:24N 62°53' E 006°43'23 7.9
2016-Sep-21 19:33N 63°05' E 007°25'70 7.0
2016-Sep-21 09:33N 63°44' E 009°35'0 0.0
2016-Sep-21 08:33N 63°44' E 009°35'0 0.0
2016-Sep-21 05:33N 63°44' E 009°35'0 0.0
2016-Sep-21 03:33N 63°44' E 009°35'0 0.0
2016-Sep-21 02:33N 63°44' E 009°35'  
2016-Sep-14 17:24N 66°55' E 013°30'6 7.2
2016-Sep-14 16:33N 66°60' E 013°39'25 8.1
2016-Sep-14 13:32N 67°17' E 014°23'0 0.0
2016-Sep-14 12:32N 67°17' E 014°23'0 0.0
2016-Sep-14 10:32N 67°17' E 014°23'0 0.0
2016-Sep-14 09:32N 67°17' E 014°23'0 0.0
2016-Sep-14 08:32N 67°17' E 014°23'0 0.0
2016-Sep-14 07:32N 67°17' E 014°23'0 0.0
2016-Sep-14 06:32N 67°17' E 014°23'0 0.0
2016-Sep-14 03:32N 67°17' E 014°23'0 0.0
2016-Sep-13 22:32N 67°17' E 014°23'0 0.0
2016-Sep-13 20:32N 67°17' E 014°23'0 0.0
2016-Sep-13 18:32N 67°17' E 014°23'0 0.0
2016-Sep-13 17:32N 67°17' E 014°23'0 0.0
2016-Sep-13 16:32N 67°17' E 014°23'0 0.0
2016-Sep-13 11:32N 67°17' E 014°23'0 0.0
2016-Sep-13 09:32N 67°17' E 014°23'0 0.0
2016-Sep-13 07:32N 67°17' E 014°23'0 0.0
2016-Sep-13 06:32N 67°17' E 014°23'0 0.0
2016-Sep-13 04:32N 67°17' E 014°23'0 0.0
2016-Sep-13 02:32N 67°17' E 014°23'0 0.0
2016-Sep-12 23:32N 67°17' E 014°23'0 0.0
2016-Sep-12 21:32N 67°17' E 014°23'0 0.0
2016-Sep-12 19:32N 67°17' E 014°23'0 0.0
2016-Sep-12 17:32N 67°17' E 014°23'0 0.0
2016-Sep-12 14:32N 67°17' E 014°23'0 0.0
2016-Sep-12 13:32N 67°17' E 014°23'0 0.0
2016-Sep-12 12:32N 67°17' E 014°23'0 0.0
2016-Sep-12 11:32N 67°17' E 014°23'0 0.0
2016-Sep-12 10:32N 67°17' E 014°23'0 0.0
2016-Sep-12 07:29N 67°17' E 014°23'0 0.0
2016-Sep-12 06:32N 67°17' E 014°23'0 0.0
2016-Sep-12 03:32N 67°17' E 014°23'0 0.0
2016-Sep-12 01:32N 67°17' E 014°23'0 0.0
2016-Sep-11 23:32N 67°17' E 014°23'  
Track history (hours):
 
Tides and Currents Weather Stations Pressure Air Temp Water Temp Dewpoint Dewpoint Depression Visibility Wind Speed Wind Dir Waves Ship Positions

Stottfjord

Last reported at 2016-Sep-21 23:19 UTC. Time now 2016-Sep-29 03:25 UTC.
Position N 62°46' E 006°34'.

Length 28 m; draft 5.3 m.

Type: Fishing. MMSI: 257580600.

Date/timePositionNaut miles runAvg speedWind from/ knotsBaromVisibWave heightAir tempDewpointWater temp
2016-Sep-21 23:19N 62°46' E 006°34'8 8.6
2016-Sep-21 22:24N 62°53' E 006°43'23 7.9
2016-Sep-21 19:33N 63°05' E 007°25'70 7.0
2016-Sep-21 09:33N 63°44' E 009°35'0 0.0
2016-Sep-21 08:33N 63°44' E 009°35'0 0.0
2016-Sep-21 05:33N 63°44' E 009°35'0 0.0
2016-Sep-21 03:33N 63°44' E 009°35'0 0.0
2016-Sep-21 02:33N 63°44' E 009°35'  
2016-Sep-14 17:24N 66°55' E 013°30'6 7.2
2016-Sep-14 16:33N 66°60' E 013°39'25 8.1
2016-Sep-14 13:32N 67°17' E 014°23'0 0.0
2016-Sep-14 12:32N 67°17' E 014°23'0 0.0
2016-Sep-14 10:32N 67°17' E 014°23'0 0.0
2016-Sep-14 09:32N 67°17' E 014°23'0 0.0
2016-Sep-14 08:32N 67°17' E 014°23'0 0.0
2016-Sep-14 07:32N 67°17' E 014°23'0 0.0
2016-Sep-14 06:32N 67°17' E 014°23'0 0.0
2016-Sep-14 03:32N 67°17' E 014°23'0 0.0
2016-Sep-13 22:32N 67°17' E 014°23'0 0.0
2016-Sep-13 20:32N 67°17' E 014°23'0 0.0
2016-Sep-13 18:32N 67°17' E 014°23'0 0.0
2016-Sep-13 17:32N 67°17' E 014°23'0 0.0
2016-Sep-13 16:32N 67°17' E 014°23'0 0.0
2016-Sep-13 11:32N 67°17' E 014°23'0 0.0
2016-Sep-13 09:32N 67°17' E 014°23'0 0.0
2016-Sep-13 07:32N 67°17' E 014°23'0 0.0
2016-Sep-13 06:32N 67°17' E 014°23'0 0.0
2016-Sep-13 04:32N 67°17' E 014°23'0 0.0
2016-Sep-13 02:32N 67°17' E 014°23'0 0.0
2016-Sep-12 23:32N 67°17' E 014°23'0 0.0
2016-Sep-12 21:32N 67°17' E 014°23'0 0.0
2016-Sep-12 19:32N 67°17' E 014°23'0 0.0
2016-Sep-12 17:32N 67°17' E 014°23'0 0.0
2016-Sep-12 14:32N 67°17' E 014°23'0 0.0
2016-Sep-12 13:32N 67°17' E 014°23'0 0.0
2016-Sep-12 12:32N 67°17' E 014°23'0 0.0
2016-Sep-12 11:32N 67°17' E 014°23'0 0.0
2016-Sep-12 10:32N 67°17' E 014°23'0 0.0
2016-Sep-12 07:29N 67°17' E 014°23'0 0.0
2016-Sep-12 06:32N 67°17' E 014°23'0 0.0
2016-Sep-12 03:32N 67°17' E 014°23'0 0.0
2016-Sep-12 01:32N 67°17' E 014°23'0 0.0
2016-Sep-11 23:32N 67°17' E 014°23'  

Dump ship's entire track history